sensor_id;sensor_type;location;lat;lon;timestamp;P1;durP1;ratioP1;P2;durP2;ratioP2
76073;SDS011;64776;42.636;24.358;2023-06-26T00:00:48;5.93;;;1.80;;
76073;SDS011;64776;42.636;24.358;2023-06-26T00:03:50;7.53;;;2.50;;
76073;SDS011;64776;42.636;24.358;2023-06-26T00:06:51;6.28;;;2.22;;
76073;SDS011;64776;42.636;24.358;2023-06-26T00:09:52;6.47;;;2.13;;
76073;SDS011;64776;42.636;24.358;2023-06-26T00:12:52;7.78;;;2.35;;
76073;SDS011;64776;42.636;24.358;2023-06-26T00:15:53;8.30;;;2.00;;
76073;SDS011;64776;42.636;24.358;2023-06-26T00:18:55;7.25;;;2.40;;
76073;SDS011;64776;42.636;24.358;2023-06-26T00:21:56;7.88;;;2.50;;
76073;SDS011;64776;42.636;24.358;2023-06-26T00:24:57;8.07;;;2.65;;
76073;SDS011;64776;42.636;24.358;2023-06-26T00:27:58;9.43;;;3.10;;
76073;SDS011;64776;42.636;24.358;2023-06-26T00:30:58;6.35;;;2.47;;
76073;SDS011;64776;42.636;24.358;2023-06-26T00:34:01;7.68;;;2.72;;
76073;SDS011;64776;42.636;24.358;2023-06-26T00:37:02;9.30;;;2.53;;
76073;SDS011;64776;42.636;24.358;2023-06-26T00:40:03;7.28;;;3.08;;
76073;SDS011;64776;42.636;24.358;2023-06-26T00:43:04;7.75;;;2.60;;
76073;SDS011;64776;42.636;24.358;2023-06-26T00:46:05;9.30;;;2.80;;
76073;SDS011;64776;42.636;24.358;2023-06-26T00:49:11;9.52;;;2.95;;
76073;SDS011;64776;42.636;24.358;2023-06-26T00:52:12;8.38;;;2.53;;
76073;SDS011;64776;42.636;24.358;2023-06-26T00:55:13;13.30;;;2.95;;
76073;SDS011;64776;42.636;24.358;2023-06-26T00:58:14;9.30;;;2.85;;
76073;SDS011;64776;42.636;24.358;2023-06-26T01:01:15;7.35;;;2.60;;
76073;SDS011;64776;42.636;24.358;2023-06-26T01:04:17;9.32;;;2.72;;
76073;SDS011;64776;42.636;24.358;2023-06-26T01:07:18;8.45;;;2.88;;
76073;SDS011;64776;42.636;24.358;2023-06-26T01:10:21;9.00;;;2.70;;
76073;SDS011;64776;42.636;24.358;2023-06-26T01:13:22;9.63;;;3.10;;
76073;SDS011;64776;42.636;24.358;2023-06-26T01:16:23;9.38;;;3.78;;
76073;SDS011;64776;42.636;24.358;2023-06-26T01:19:27;8.10;;;3.33;;
76073;SDS011;64776;42.636;24.358;2023-06-26T01:22:32;10.32;;;3.63;;
76073;SDS011;64776;42.636;24.358;2023-06-26T01:25:40;8.88;;;3.53;;
76073;SDS011;64776;42.636;24.358;2023-06-26T01:28:50;8.60;;;3.53;;
76073;SDS011;64776;42.636;24.358;2023-06-26T01:31:51;7.97;;;2.63;;
76073;SDS011;64776;42.636;24.358;2023-06-26T01:34:52;9.68;;;3.90;;
76073;SDS011;64776;42.636;24.358;2023-06-26T01:37:53;10.05;;;3.70;;
76073;SDS011;64776;42.636;24.358;2023-06-26T01:41:10;10.98;;;4.20;;
76073;SDS011;64776;42.636;24.358;2023-06-26T01:44:15;11.05;;;3.92;;
76073;SDS011;64776;42.636;24.358;2023-06-26T01:47:24;11.23;;;4.22;;
76073;SDS011;64776;42.636;24.358;2023-06-26T01:50:29;12.00;;;3.95;;
76073;SDS011;64776;42.636;24.358;2023-06-26T01:53:35;9.35;;;3.63;;
76073;SDS011;64776;42.636;24.358;2023-06-26T01:56:39;9.90;;;3.67;;
76073;SDS011;64776;42.636;24.358;2023-06-26T01:59:42;9.98;;;4.10;;
76073;SDS011;64776;42.636;24.358;2023-06-26T02:02:43;9.43;;;4.38;;
76073;SDS011;64776;42.636;24.358;2023-06-26T02:05:44;12.43;;;5.65;;
76073;SDS011;64776;42.636;24.358;2023-06-26T02:08:45;14.45;;;5.93;;
76073;SDS011;64776;42.636;24.358;2023-06-26T02:11:46;14.73;;;7.70;;
76073;SDS011;64776;42.636;24.358;2023-06-26T02:14:48;16.92;;;7.78;;
76073;SDS011;64776;42.636;24.358;2023-06-26T02:17:48;14.55;;;7.80;;
76073;SDS011;64776;42.636;24.358;2023-06-26T02:20:49;14.75;;;7.25;;
76073;SDS011;64776;42.636;24.358;2023-06-26T02:23:50;14.57;;;6.75;;
76073;SDS011;64776;42.636;24.358;2023-06-26T02:26:51;16.58;;;8.07;;
76073;SDS011;64776;42.636;24.358;2023-06-26T02:29:53;15.50;;;7.35;;
76073;SDS011;64776;42.636;24.358;2023-06-26T02:32:55;14.43;;;6.78;;
76073;SDS011;64776;42.636;24.358;2023-06-26T02:35:56;12.68;;;6.78;;
76073;SDS011;64776;42.636;24.358;2023-06-26T02:38:56;15.57;;;6.90;;
76073;SDS011;64776;42.636;24.358;2023-06-26T02:41:57;18.42;;;7.30;;
76073;SDS011;64776;42.636;24.358;2023-06-26T02:44:59;15.88;;;6.47;;
76073;SDS011;64776;42.636;24.358;2023-06-26T02:48:00;17.10;;;7.35;;
76073;SDS011;64776;42.636;24.358;2023-06-26T02:51:01;14.63;;;6.38;;
76073;SDS011;64776;42.636;24.358;2023-06-26T02:54:02;14.40;;;6.22;;
76073;SDS011;64776;42.636;24.358;2023-06-26T02:57:02;11.60;;;5.45;;
76073;SDS011;64776;42.636;24.358;2023-06-26T03:00:05;12.25;;;5.45;;
76073;SDS011;64776;42.636;24.358;2023-06-26T03:03:08;12.45;;;6.00;;
76073;SDS011;64776;42.636;24.358;2023-06-26T03:06:09;14.52;;;6.22;;
76073;SDS011;64776;42.636;24.358;2023-06-26T03:09:10;14.32;;;6.30;;
76073;SDS011;64776;42.636;24.358;2023-06-26T03:12:11;13.57;;;5.90;;
76073;SDS011;64776;42.636;24.358;2023-06-26T03:15:13;12.48;;;5.63;;
76073;SDS011;64776;42.636;24.358;2023-06-26T03:18:14;14.75;;;7.05;;
76073;SDS011;64776;42.636;24.358;2023-06-26T03:21:15;13.90;;;5.82;;
76073;SDS011;64776;42.636;24.358;2023-06-26T03:24:15;14.93;;;6.78;;
76073;SDS011;64776;42.636;24.358;2023-06-26T03:27:16;15.38;;;7.05;;
76073;SDS011;64776;42.636;24.358;2023-06-26T03:30:18;15.30;;;7.22;;
76073;SDS011;64776;42.636;24.358;2023-06-26T03:33:19;17.05;;;7.97;;
76073;SDS011;64776;42.636;24.358;2023-06-26T03:36:20;13.02;;;6.80;;
76073;SDS011;64776;42.636;24.358;2023-06-26T03:39:21;18.38;;;7.38;;
76073;SDS011;64776;42.636;24.358;2023-06-26T03:42:21;15.65;;;8.10;;
76073;SDS011;64776;42.636;24.358;2023-06-26T03:45:24;19.50;;;8.02;;
76073;SDS011;64776;42.636;24.358;2023-06-26T03:48:24;19.35;;;11.55;;
76073;SDS011;64776;42.636;24.358;2023-06-26T03:51:25;19.88;;;9.85;;
76073;SDS011;64776;42.636;24.358;2023-06-26T03:54:26;15.50;;;7.93;;
76073;SDS011;64776;42.636;24.358;2023-06-26T03:57:26;18.80;;;10.77;;
76073;SDS011;64776;42.636;24.358;2023-06-26T04:00:29;19.70;;;9.38;;
76073;SDS011;64776;42.636;24.358;2023-06-26T04:03:29;16.42;;;9.23;;
76073;SDS011;64776;42.636;24.358;2023-06-26T04:06:30;19.88;;;8.38;;
76073;SDS011;64776;42.636;24.358;2023-06-26T04:09:31;12.55;;;6.43;;
76073;SDS011;64776;42.636;24.358;2023-06-26T04:12:32;13.57;;;6.47;;
76073;SDS011;64776;42.636;24.358;2023-06-26T04:15:34;15.40;;;6.88;;
76073;SDS011;64776;42.636;24.358;2023-06-26T04:18:35;17.55;;;9.55;;
76073;SDS011;64776;42.636;24.358;2023-06-26T04:21:35;24.80;;;10.48;;
76073;SDS011;64776;42.636;24.358;2023-06-26T04:24:36;17.83;;;8.57;;
76073;SDS011;64776;42.636;24.358;2023-06-26T04:27:37;20.48;;;8.18;;
76073;SDS011;64776;42.636;24.358;2023-06-26T04:30:39;17.00;;;8.98;;
76073;SDS011;64776;42.636;24.358;2023-06-26T04:33:40;13.70;;;7.03;;
76073;SDS011;64776;42.636;24.358;2023-06-26T04:36:41;12.65;;;5.70;;
76073;SDS011;64776;42.636;24.358;2023-06-26T04:39:42;15.15;;;7.05;;
76073;SDS011;64776;42.636;24.358;2023-06-26T04:42:42;20.60;;;6.50;;
76073;SDS011;64776;42.636;24.358;2023-06-26T04:45:44;12.50;;;6.53;;
76073;SDS011;64776;42.636;24.358;2023-06-26T04:48:45;14.50;;;6.80;;
76073;SDS011;64776;42.636;24.358;2023-06-26T04:51:46;11.85;;;5.28;;
76073;SDS011;64776;42.636;24.358;2023-06-26T04:54:47;14.90;;;4.55;;
76073;SDS011;64776;42.636;24.358;2023-06-26T04:57:47;9.73;;;4.88;;
76073;SDS011;64776;42.636;24.358;2023-06-26T05:00:50;10.73;;;4.35;;
76073;SDS011;64776;42.636;24.358;2023-06-26T05:03:50;23.27;;;8.77;;
76073;SDS011;64776;42.636;24.358;2023-06-26T05:06:51;18.40;;;9.52;;
76073;SDS011;64776;42.636;24.358;2023-06-26T05:09:52;22.25;;;9.07;;
76073;SDS011;64776;42.636;24.358;2023-06-26T05:12:52;15.20;;;5.63;;
76073;SDS011;64776;42.636;24.358;2023-06-26T05:15:55;13.53;;;6.63;;
76073;SDS011;64776;42.636;24.358;2023-06-26T05:18:55;13.52;;;6.65;;
76073;SDS011;64776;42.636;24.358;2023-06-26T05:21:56;85.72;;;32.80;;
76073;SDS011;64776;42.636;24.358;2023-06-26T05:24:58;62.92;;;32.45;;
76073;SDS011;64776;42.636;24.358;2023-06-26T05:27:59;12.88;;;6.53;;
76073;SDS011;64776;42.636;24.358;2023-06-26T05:31:02;13.90;;;10.10;;
76073;SDS011;64776;42.636;24.358;2023-06-26T05:34:04;13.25;;;6.75;;
76073;SDS011;64776;42.636;24.358;2023-06-26T05:37:05;15.70;;;6.55;;
76073;SDS011;64776;42.636;24.358;2023-06-26T05:40:08;14.38;;;6.20;;
76073;SDS011;64776;42.636;24.358;2023-06-26T05:43:10;11.80;;;5.03;;
76073;SDS011;64776;42.636;24.358;2023-06-26T05:46:12;12.07;;;4.75;;
76073;SDS011;64776;42.636;24.358;2023-06-26T05:49:13;10.48;;;3.88;;
76073;SDS011;64776;42.636;24.358;2023-06-26T05:52:14;12.10;;;5.35;;
76073;SDS011;64776;42.636;24.358;2023-06-26T05:55:15;8.48;;;3.78;;
76073;SDS011;64776;42.636;24.358;2023-06-26T05:58:17;9.27;;;3.30;;
76073;SDS011;64776;42.636;24.358;2023-06-26T06:01:21;10.73;;;4.07;;
76073;SDS011;64776;42.636;24.358;2023-06-26T06:04:22;12.50;;;4.85;;
76073;SDS011;64776;42.636;24.358;2023-06-26T06:07:23;25.20;;;12.48;;
76073;SDS011;64776;42.636;24.358;2023-06-26T06:10:23;16.08;;;9.70;;
76073;SDS011;64776;42.636;24.358;2023-06-26T06:13:24;9.48;;;3.58;;
76073;SDS011;64776;42.636;24.358;2023-06-26T06:16:26;10.50;;;3.70;;
76073;SDS011;64776;42.636;24.358;2023-06-26T06:19:27;10.82;;;3.00;;
76073;SDS011;64776;42.636;24.358;2023-06-26T06:22:28;8.82;;;2.78;;
76073;SDS011;64776;42.636;24.358;2023-06-26T06:25:29;6.53;;;2.20;;
76073;SDS011;64776;42.636;24.358;2023-06-26T06:28:30;10.65;;;3.42;;
76073;SDS011;64776;42.636;24.358;2023-06-26T06:31:32;8.45;;;3.10;;
76073;SDS011;64776;42.636;24.358;2023-06-26T06:34:33;9.68;;;3.60;;
76073;SDS011;64776;42.636;24.358;2023-06-26T06:37:34;9.05;;;3.78;;
76073;SDS011;64776;42.636;24.358;2023-06-26T06:40:34;9.07;;;3.70;;
76073;SDS011;64776;42.636;24.358;2023-06-26T06:43:35;7.78;;;3.65;;
76073;SDS011;64776;42.636;24.358;2023-06-26T06:46:38;8.27;;;2.75;;
76073;SDS011;64776;42.636;24.358;2023-06-26T06:49:39;11.25;;;3.47;;
76073;SDS011;64776;42.636;24.358;2023-06-26T06:52:39;7.50;;;2.78;;
76073;SDS011;64776;42.636;24.358;2023-06-26T06:55:40;6.57;;;2.55;;
76073;SDS011;64776;42.636;24.358;2023-06-26T06:58:41;7.65;;;2.80;;
76073;SDS011;64776;42.636;24.358;2023-06-26T07:01:43;8.68;;;2.83;;
76073;SDS011;64776;42.636;24.358;2023-06-26T07:04:44;10.50;;;2.92;;
76073;SDS011;64776;42.636;24.358;2023-06-26T07:07:45;9.40;;;3.20;;
76073;SDS011;64776;42.636;24.358;2023-06-26T07:10:45;7.15;;;2.55;;
76073;SDS011;64776;42.636;24.358;2023-06-26T07:13:46;8.93;;;2.58;;
76073;SDS011;64776;42.636;24.358;2023-06-26T07:16:48;7.88;;;3.00;;
76073;SDS011;64776;42.636;24.358;2023-06-26T07:19:49;7.65;;;3.38;;
76073;SDS011;64776;42.636;24.358;2023-06-26T07:22:50;9.23;;;2.97;;
76073;SDS011;64776;42.636;24.358;2023-06-26T07:25:51;9.93;;;3.42;;
76073;SDS011;64776;42.636;24.358;2023-06-26T07:28:51;10.18;;;3.05;;
76073;SDS011;64776;42.636;24.358;2023-06-26T07:31:54;8.43;;;3.65;;
76073;SDS011;64776;42.636;24.358;2023-06-26T07:34:54;9.88;;;3.38;;
76073;SDS011;64776;42.636;24.358;2023-06-26T07:37:55;9.45;;;3.28;;
76073;SDS011;64776;42.636;24.358;2023-06-26T07:40:56;10.15;;;3.40;;
76073;SDS011;64776;42.636;24.358;2023-06-26T07:43:57;6.88;;;2.80;;
76073;SDS011;64776;42.636;24.358;2023-06-26T07:47:00;10.07;;;3.67;;
76073;SDS011;64776;42.636;24.358;2023-06-26T07:50:00;9.45;;;3.22;;
76073;SDS011;64776;42.636;24.358;2023-06-26T07:53:01;9.70;;;4.07;;
76073;SDS011;64776;42.636;24.358;2023-06-26T07:56:02;9.50;;;3.35;;
76073;SDS011;64776;42.636;24.358;2023-06-26T07:59:03;10.55;;;2.83;;
76073;SDS011;64776;42.636;24.358;2023-06-26T08:02:05;12.00;;;3.25;;
76073;SDS011;64776;42.636;24.358;2023-06-26T08:05:06;7.65;;;3.03;;
76073;SDS011;64776;42.636;24.358;2023-06-26T08:08:07;8.20;;;3.75;;
76073;SDS011;64776;42.636;24.358;2023-06-26T08:11:08;8.73;;;3.10;;
76073;SDS011;64776;42.636;24.358;2023-06-26T08:14:09;10.23;;;2.72;;
76073;SDS011;64776;42.636;24.358;2023-06-26T08:17:11;15.75;;;3.08;;
76073;SDS011;64776;42.636;24.358;2023-06-26T08:20:12;10.13;;;3.00;;
76073;SDS011;64776;42.636;24.358;2023-06-26T08:23:13;5.00;;;2.10;;
76073;SDS011;64776;42.636;24.358;2023-06-26T08:26:13;6.00;;;2.13;;
76073;SDS011;64776;42.636;24.358;2023-06-26T08:29:16;6.70;;;2.78;;
76073;SDS011;64776;42.636;24.358;2023-06-26T08:32:18;7.97;;;2.90;;
76073;SDS011;64776;42.636;24.358;2023-06-26T08:35:18;7.28;;;2.55;;
76073;SDS011;64776;42.636;24.358;2023-06-26T08:38:19;7.25;;;2.30;;
76073;SDS011;64776;42.636;24.358;2023-06-26T08:41:20;6.18;;;2.72;;
76073;SDS011;64776;42.636;24.358;2023-06-26T08:44:21;9.48;;;2.42;;
76073;SDS011;64776;42.636;24.358;2023-06-26T08:47:23;8.15;;;2.25;;
76073;SDS011;64776;42.636;24.358;2023-06-26T08:50:24;7.03;;;2.85;;
76073;SDS011;64776;42.636;24.358;2023-06-26T08:53:34;7.93;;;2.40;;
76073;SDS011;64776;42.636;24.358;2023-06-26T08:56:41;16.17;;;4.93;;
76073;SDS011;64776;42.636;24.358;2023-06-26T09:02:47;6.78;;;2.42;;
76073;SDS011;64776;42.636;24.358;2023-06-26T09:05:48;7.25;;;2.42;;
76073;SDS011;64776;42.636;24.358;2023-06-26T09:08:48;7.07;;;2.40;;
76073;SDS011;64776;42.636;24.358;2023-06-26T09:11:49;6.57;;;2.65;;
76073;SDS011;64776;42.636;24.358;2023-06-26T09:14:50;10.77;;;2.63;;
76073;SDS011;64776;42.636;24.358;2023-06-26T09:17:53;7.38;;;2.30;;
76073;SDS011;64776;42.636;24.358;2023-06-26T09:20:56;9.45;;;2.72;;
76073;SDS011;64776;42.636;24.358;2023-06-26T09:23:57;9.20;;;2.90;;
76073;SDS011;64776;42.636;24.358;2023-06-26T09:26:58;7.85;;;1.95;;
76073;SDS011;64776;42.636;24.358;2023-06-26T09:29:59;6.15;;;1.92;;
76073;SDS011;64776;42.636;24.358;2023-06-26T09:33:14;7.22;;;2.03;;
76073;SDS011;64776;42.636;24.358;2023-06-26T09:36:18;6.10;;;2.45;;
76073;SDS011;64776;42.636;24.358;2023-06-26T09:39:20;5.88;;;2.00;;
76073;SDS011;64776;42.636;24.358;2023-06-26T09:42:21;6.85;;;2.10;;
76073;SDS011;64776;42.636;24.358;2023-06-26T09:45:22;6.22;;;2.03;;
76073;SDS011;64776;42.636;24.358;2023-06-26T09:48:24;7.68;;;2.72;;
76073;SDS011;64776;42.636;24.358;2023-06-26T09:51:25;6.20;;;2.08;;
76073;SDS011;64776;42.636;24.358;2023-06-26T09:54:26;7.23;;;2.47;;
76073;SDS011;64776;42.636;24.358;2023-06-26T09:57:27;7.13;;;2.00;;
76073;SDS011;64776;42.636;24.358;2023-06-26T10:00:28;7.28;;;2.28;;
76073;SDS011;64776;42.636;24.358;2023-06-26T10:03:31;7.20;;;1.85;;
76073;SDS011;64776;42.636;24.358;2023-06-26T10:06:33;7.45;;;2.70;;
76073;SDS011;64776;42.636;24.358;2023-06-26T10:12:41;6.78;;;2.20;;
76073;SDS011;64776;42.636;24.358;2023-06-26T10:15:45;8.40;;;2.22;;
76073;SDS011;64776;42.636;24.358;2023-06-26T10:18:48;8.65;;;2.75;;
76073;SDS011;64776;42.636;24.358;2023-06-26T10:21:53;5.40;;;2.15;;
76073;SDS011;64776;42.636;24.358;2023-06-26T10:24:55;8.52;;;2.78;;
76073;SDS011;64776;42.636;24.358;2023-06-26T10:27:58;9.63;;;3.42;;
76073;SDS011;64776;42.636;24.358;2023-06-26T10:31:01;7.78;;;2.95;;
76073;SDS011;64776;42.636;24.358;2023-06-26T10:34:07;6.22;;;2.00;;
76073;SDS011;64776;42.636;24.358;2023-06-26T10:37:08;6.10;;;1.70;;
76073;SDS011;64776;42.636;24.358;2023-06-26T10:40:09;6.82;;;1.83;;
76073;SDS011;64776;42.636;24.358;2023-06-26T10:43:11;4.70;;;1.38;;
76073;SDS011;64776;42.636;24.358;2023-06-26T10:46:14;6.63;;;1.80;;
76073;SDS011;64776;42.636;24.358;2023-06-26T10:49:17;5.57;;;1.40;;
76073;SDS011;64776;42.636;24.358;2023-06-26T10:52:17;5.80;;;1.48;;
76073;SDS011;64776;42.636;24.358;2023-06-26T10:55:20;4.75;;;1.30;;
76073;SDS011;64776;42.636;24.358;2023-06-26T10:58:28;7.70;;;1.98;;
76073;SDS011;64776;42.636;24.358;2023-06-26T11:01:35;7.63;;;2.22;;
76073;SDS011;64776;42.636;24.358;2023-06-26T11:04:43;6.53;;;1.60;;
76073;SDS011;64776;42.636;24.358;2023-06-26T11:11:00;4.72;;;1.40;;
76073;SDS011;64776;42.636;24.358;2023-06-26T11:14:00;8.05;;;2.13;;
76073;SDS011;64776;42.636;24.358;2023-06-26T11:17:03;5.07;;;1.65;;
76073;SDS011;64776;42.636;24.358;2023-06-26T11:20:06;6.05;;;2.15;;
76073;SDS011;64776;42.636;24.358;2023-06-26T11:23:08;6.13;;;1.60;;
76073;SDS011;64776;42.636;24.358;2023-06-26T11:26:13;7.93;;;2.00;;
76073;SDS011;64776;42.636;24.358;2023-06-26T11:29:14;4.80;;;1.35;;
76073;SDS011;64776;42.636;24.358;2023-06-26T11:32:15;7.25;;;3.00;;
76073;SDS011;64776;42.636;24.358;2023-06-26T11:35:23;6.35;;;2.65;;
76073;SDS011;64776;42.636;24.358;2023-06-26T11:38:25;6.70;;;2.20;;
76073;SDS011;64776;42.636;24.358;2023-06-26T11:41:26;8.07;;;2.50;;
76073;SDS011;64776;42.636;24.358;2023-06-26T11:44:31;5.13;;;1.90;;
76073;SDS011;64776;42.636;24.358;2023-06-26T11:47:32;7.45;;;2.50;;
76073;SDS011;64776;42.636;24.358;2023-06-26T11:50:36;6.75;;;1.50;;
76073;SDS011;64776;42.636;24.358;2023-06-26T11:53:39;6.90;;;2.78;;
76073;SDS011;64776;42.636;24.358;2023-06-26T11:56:40;6.22;;;1.83;;
76073;SDS011;64776;42.636;24.358;2023-06-26T11:59:41;9.15;;;1.90;;
76073;SDS011;64776;42.636;24.358;2023-06-26T12:02:42;5.70;;;1.85;;
76073;SDS011;64776;42.636;24.358;2023-06-26T12:05:44;5.05;;;1.90;;
76073;SDS011;64776;42.636;24.358;2023-06-26T12:08:45;6.03;;;1.23;;
76073;SDS011;64776;42.636;24.358;2023-06-26T12:11:47;5.32;;;1.30;;
76073;SDS011;64776;42.636;24.358;2023-06-26T12:14:51;8.40;;;2.20;;
76073;SDS011;64776;42.636;24.358;2023-06-26T12:17:52;7.22;;;1.88;;
76073;SDS011;64776;42.636;24.358;2023-06-26T12:20:55;6.00;;;1.90;;
76073;SDS011;64776;42.636;24.358;2023-06-26T12:23:59;7.85;;;1.75;;
76073;SDS011;64776;42.636;24.358;2023-06-26T12:27:00;6.07;;;2.30;;
76073;SDS011;64776;42.636;24.358;2023-06-26T12:30:04;7.60;;;1.67;;
76073;SDS011;64776;42.636;24.358;2023-06-26T12:33:12;6.85;;;1.95;;
76073;SDS011;64776;42.636;24.358;2023-06-26T12:36:15;4.95;;;1.40;;
76073;SDS011;64776;42.636;24.358;2023-06-26T12:39:16;8.35;;;1.52;;
76073;SDS011;64776;42.636;24.358;2023-06-26T12:42:18;17.58;;;3.50;;
76073;SDS011;64776;42.636;24.358;2023-06-26T12:45:20;8.95;;;2.20;;
76073;SDS011;64776;42.636;24.358;2023-06-26T12:48:21;6.03;;;1.98;;
76073;SDS011;64776;42.636;24.358;2023-06-26T12:51:23;7.72;;;2.00;;
76073;SDS011;64776;42.636;24.358;2023-06-26T12:54:24;8.30;;;1.73;;
76073;SDS011;64776;42.636;24.358;2023-06-26T12:57:26;12.88;;;2.53;;
76073;SDS011;64776;42.636;24.358;2023-06-26T13:00:26;11.82;;;1.92;;
76073;SDS011;64776;42.636;24.358;2023-06-26T13:03:27;5.90;;;1.85;;
76073;SDS011;64776;42.636;24.358;2023-06-26T13:06:29;6.05;;;1.63;;
76073;SDS011;64776;42.636;24.358;2023-06-26T13:09:31;5.25;;;1.83;;
76073;SDS011;64776;42.636;24.358;2023-06-26T13:12:32;6.63;;;2.05;;
76073;SDS011;64776;42.636;24.358;2023-06-26T13:15:33;5.43;;;1.88;;
76073;SDS011;64776;42.636;24.358;2023-06-26T13:18:34;6.35;;;1.70;;
76073;SDS011;64776;42.636;24.358;2023-06-26T13:21:36;5.72;;;1.67;;
76073;SDS011;64776;42.636;24.358;2023-06-26T13:24:37;5.30;;;1.63;;
76073;SDS011;64776;42.636;24.358;2023-06-26T13:27:38;7.30;;;1.60;;
76073;SDS011;64776;42.636;24.358;2023-06-26T13:30:38;6.80;;;2.20;;
76073;SDS011;64776;42.636;24.358;2023-06-26T13:33:39;5.68;;;1.45;;
76073;SDS011;64776;42.636;24.358;2023-06-26T13:36:41;4.30;;;1.20;;
76073;SDS011;64776;42.636;24.358;2023-06-26T13:39:42;4.60;;;1.33;;
76073;SDS011;64776;42.636;24.358;2023-06-26T13:42:43;6.05;;;1.67;;
76073;SDS011;64776;42.636;24.358;2023-06-26T13:45:44;3.80;;;1.23;;
76073;SDS011;64776;42.636;24.358;2023-06-26T13:48:44;9.70;;;1.73;;
76073;SDS011;64776;42.636;24.358;2023-06-26T13:51:47;7.13;;;2.15;;
76073;SDS011;64776;42.636;24.358;2023-06-26T13:54:47;5.80;;;1.80;;
76073;SDS011;64776;42.636;24.358;2023-06-26T13:57:48;6.15;;;2.20;;
76073;SDS011;64776;42.636;24.358;2023-06-26T14:00:49;8.88;;;2.90;;
76073;SDS011;64776;42.636;24.358;2023-06-26T14:03:50;9.15;;;3.75;;
76073;SDS011;64776;42.636;24.358;2023-06-26T14:06:52;8.02;;;2.33;;
76073;SDS011;64776;42.636;24.358;2023-06-26T14:09:53;7.70;;;1.85;;
76073;SDS011;64776;42.636;24.358;2023-06-26T14:12:54;8.48;;;2.40;;
76073;SDS011;64776;42.636;24.358;2023-06-26T14:15:54;7.82;;;2.03;;
76073;SDS011;64776;42.636;24.358;2023-06-26T14:18:55;9.27;;;1.98;;
76073;SDS011;64776;42.636;24.358;2023-06-26T14:21:58;7.43;;;1.95;;
76073;SDS011;64776;42.636;24.358;2023-06-26T14:24:58;5.18;;;1.75;;
76073;SDS011;64776;42.636;24.358;2023-06-26T14:27:59;7.35;;;1.50;;
76073;SDS011;64776;42.636;24.358;2023-06-26T14:31:00;6.45;;;1.83;;
76073;SDS011;64776;42.636;24.358;2023-06-26T14:34:01;7.40;;;1.90;;
76073;SDS011;64776;42.636;24.358;2023-06-26T14:37:03;6.82;;;1.67;;
76073;SDS011;64776;42.636;24.358;2023-06-26T14:40:05;6.72;;;2.25;;
76073;SDS011;64776;42.636;24.358;2023-06-26T14:43:07;6.28;;;1.85;;
76073;SDS011;64776;42.636;24.358;2023-06-26T14:46:07;6.57;;;2.65;;
76073;SDS011;64776;42.636;24.358;2023-06-26T14:49:08;9.48;;;3.08;;
76073;SDS011;64776;42.636;24.358;2023-06-26T14:52:11;9.57;;;3.22;;
76073;SDS011;64776;42.636;24.358;2023-06-26T14:55:12;9.88;;;3.90;;
76073;SDS011;64776;42.636;24.358;2023-06-26T14:58:12;8.57;;;2.80;;
76073;SDS011;64776;42.636;24.358;2023-06-26T15:01:13;10.02;;;2.53;;
76073;SDS011;64776;42.636;24.358;2023-06-26T15:04:14;5.95;;;1.90;;
76073;SDS011;64776;42.636;24.358;2023-06-26T15:07:16;7.80;;;2.00;;
76073;SDS011;64776;42.636;24.358;2023-06-26T15:10:17;5.63;;;2.17;;
76073;SDS011;64776;42.636;24.358;2023-06-26T15:13:18;6.43;;;2.33;;
76073;SDS011;64776;42.636;24.358;2023-06-26T15:16:18;5.65;;;1.95;;
76073;SDS011;64776;42.636;24.358;2023-06-26T15:19:19;6.13;;;1.95;;
76073;SDS011;64776;42.636;24.358;2023-06-26T15:22:22;12.75;;;4.60;;
76073;SDS011;64776;42.636;24.358;2023-06-26T15:25:23;9.15;;;3.53;;
76073;SDS011;64776;42.636;24.358;2023-06-26T15:28:24;10.77;;;3.55;;
76073;SDS011;64776;42.636;24.358;2023-06-26T15:31:24;7.95;;;3.17;;
76073;SDS011;64776;42.636;24.358;2023-06-26T15:34:28;8.20;;;2.72;;
76073;SDS011;64776;42.636;24.358;2023-06-26T15:37:30;7.53;;;2.38;;
76073;SDS011;64776;42.636;24.358;2023-06-26T15:40:31;9.20;;;2.83;;
76073;SDS011;64776;42.636;24.358;2023-06-26T15:43:32;6.93;;;2.70;;
76073;SDS011;64776;42.636;24.358;2023-06-26T15:46:33;6.53;;;2.15;;
76073;SDS011;64776;42.636;24.358;2023-06-26T15:49:34;5.85;;;1.90;;
76073;SDS011;64776;42.636;24.358;2023-06-26T15:52:36;6.57;;;2.00;;
76073;SDS011;64776;42.636;24.358;2023-06-26T15:55:37;7.60;;;2.33;;
76073;SDS011;64776;42.636;24.358;2023-06-26T15:58:38;5.20;;;1.60;;
76073;SDS011;64776;42.636;24.358;2023-06-26T16:01:39;9.25;;;1.55;;
76073;SDS011;64776;42.636;24.358;2023-06-26T16:04:40;7.95;;;2.35;;
76073;SDS011;64776;42.636;24.358;2023-06-26T16:07:42;6.85;;;2.42;;
76073;SDS011;64776;42.636;24.358;2023-06-26T16:10:42;8.20;;;3.05;;
76073;SDS011;64776;42.636;24.358;2023-06-26T16:13:43;6.97;;;2.42;;
76073;SDS011;64776;42.636;24.358;2023-06-26T16:16:44;6.28;;;2.25;;
76073;SDS011;64776;42.636;24.358;2023-06-26T16:19:45;7.50;;;1.92;;
76073;SDS011;64776;42.636;24.358;2023-06-26T16:22:47;5.30;;;1.70;;
76073;SDS011;64776;42.636;24.358;2023-06-26T16:25:47;5.30;;;1.58;;
76073;SDS011;64776;42.636;24.358;2023-06-26T16:28:48;4.50;;;1.50;;
76073;SDS011;64776;42.636;24.358;2023-06-26T16:31:49;5.15;;;1.98;;
76073;SDS011;64776;42.636;24.358;2023-06-26T16:34:50;5.75;;;1.75;;
76073;SDS011;64776;42.636;24.358;2023-06-26T16:37:52;7.05;;;2.17;;
76073;SDS011;64776;42.636;24.358;2023-06-26T16:40:52;7.53;;;2.40;;
76073;SDS011;64776;42.636;24.358;2023-06-26T16:43:53;6.15;;;2.17;;
76073;SDS011;64776;42.636;24.358;2023-06-26T16:46:55;8.95;;;3.30;;
76073;SDS011;64776;42.636;24.358;2023-06-26T16:49:56;9.48;;;3.40;;
76073;SDS011;64776;42.636;24.358;2023-06-26T16:52:58;9.05;;;3.10;;
76073;SDS011;64776;42.636;24.358;2023-06-26T16:55:59;6.57;;;2.90;;
76073;SDS011;64776;42.636;24.358;2023-06-26T16:59:00;8.60;;;3.47;;
76073;SDS011;64776;42.636;24.358;2023-06-26T17:02:01;8.25;;;3.42;;
76073;SDS011;64776;42.636;24.358;2023-06-26T17:05:02;6.80;;;2.58;;
76073;SDS011;64776;42.636;24.358;2023-06-26T17:08:04;8.60;;;3.20;;
76073;SDS011;64776;42.636;24.358;2023-06-26T17:11:05;8.27;;;2.83;;
76073;SDS011;64776;42.636;24.358;2023-06-26T17:14:06;7.50;;;2.28;;
76073;SDS011;64776;42.636;24.358;2023-06-26T17:17:07;6.75;;;2.33;;
76073;SDS011;64776;42.636;24.358;2023-06-26T17:20:08;5.32;;;1.77;;
76073;SDS011;64776;42.636;24.358;2023-06-26T17:23:11;5.40;;;2.10;;
76073;SDS011;64776;42.636;24.358;2023-06-26T17:26:11;6.07;;;2.15;;
76073;SDS011;64776;42.636;24.358;2023-06-26T17:29:12;4.88;;;1.70;;
76073;SDS011;64776;42.636;24.358;2023-06-26T17:32:13;5.20;;;2.00;;
76073;SDS011;64776;42.636;24.358;2023-06-26T17:35:13;7.38;;;1.88;;
76073;SDS011;64776;42.636;24.358;2023-06-26T17:38:16;5.93;;;1.80;;
76073;SDS011;64776;42.636;24.358;2023-06-26T17:41:25;6.53;;;1.60;;
76073;SDS011;64776;42.636;24.358;2023-06-26T17:44:26;4.57;;;1.67;;
76073;SDS011;64776;42.636;24.358;2023-06-26T17:47:27;6.15;;;1.60;;
76073;SDS011;64776;42.636;24.358;2023-06-26T17:50:28;6.07;;;2.35;;
76073;SDS011;64776;42.636;24.358;2023-06-26T17:53:30;8.63;;;2.30;;
76073;SDS011;64776;42.636;24.358;2023-06-26T17:56:31;6.95;;;2.33;;
76073;SDS011;64776;42.636;24.358;2023-06-26T17:59:33;5.97;;;2.05;;
76073;SDS011;64776;42.636;24.358;2023-06-26T18:02:33;5.15;;;1.42;;